Time;durP1;ratioP1;P1;durP2;ratioP2;P2;SDS_P1;SDS_P2;PMS_P1;PMS_P2;Temp;Humidity;BMP_temperature;BMP_pressure;BME280_temperature;BME280_humidity;BME280_pressure;Samples;Min_cycle;Max_cycle;Signal;HPM_P1;HPM_P2
2022/03/02 00:02:31;;;;;;;17.50;14.90;;;1.20;1.00;;;;;;6308903;28;20225;-55
2022/03/02 00:05:36;;;;;;;20.23;15.80;;;1.10;1.00;;;;;;6308652;28;20410;-56
2022/03/02 00:08:39;;;;;;;23.20;18.10;;;1.10;1.00;;;;;;6302814;28;20713;-55
2022/03/02 00:11:42;;;;;;;25.17;18.20;;;1.10;1.00;;;;;;6308914;28;20349;-55
2022/03/02 00:14:44;;;;;;;22.20;17.40;;;0.80;1.00;;;;;;6311401;28;20241;-55
2022/03/02 00:17:47;;;;;;;19.80;15.40;;;1.20;1.00;;;;;;6301972;28;20233;-55
2022/03/02 00:20:51;;;;;;;21.57;15.60;;;1.10;1.00;;;;;;6290011;28;20240;-56
2022/03/02 00:23:54;;;;;;;23.07;16.80;;;1.10;1.00;;;;;;6308324;28;20386;-59
2022/03/02 00:26:57;;;;;;;22.57;16.07;;;1.00;1.00;;;;;;6302205;28;20855;-56
2022/03/02 00:30:00;;;;;;;21.80;16.00;;;1.00;1.00;;;;;;6296298;28;20240;-54
2022/03/02 00:33:03;;;;;;;23.43;17.10;;;1.00;1.00;;;;;;6300930;28;20311;-55
2022/03/02 00:36:07;;;;;;;24.77;17.03;;;0.90;1.00;;;;;;6308604;28;20228;-56
2022/03/02 00:39:10;;;;;;;24.40;18.00;;;0.90;1.00;;;;;;6294630;28;20677;-57
2022/03/02 00:42:13;;;;;;;24.77;18.43;;;0.90;1.00;;;;;;6307058;28;20243;-56
2022/03/02 00:45:16;;;;;;;23.83;17.63;;;1.00;1.00;;;;;;6313889;28;20488;-54
2022/03/02 00:48:20;;;;;;;20.87;16.93;;;1.10;1.00;;;;;;6311920;28;20235;-54
2022/03/02 00:51:26;;;;;;;25.63;16.80;;;1.20;1.00;;;;;;6309769;28;20718;-55
2022/03/02 00:54:28;;;;;;;25.93;17.30;;;0.90;1.00;;;;;;6314580;28;20756;-56
2022/03/02 00:57:31;;;;;;;21.97;16.97;;;1.20;1.00;;;;;;6310063;28;20236;-55
2022/03/02 01:00:34;;;;;;;23.57;16.63;;;1.00;1.00;;;;;;6311446;28;20739;-55
2022/03/02 01:03:37;;;;;;;24.03;16.70;;;1.00;1.00;;;;;;6313898;28;20371;-55
2022/03/02 01:06:42;;;;;;;21.17;14.77;;;1.10;1.00;;;;;;6306061;28;20228;-55
2022/03/02 01:09:44;;;;;;;23.93;16.83;;;1.00;1.00;;;;;;6304201;28;20320;-55
2022/03/02 01:12:48;;;;;;;24.20;16.10;;;1.20;1.00;;;;;;6297498;28;20282;-56
2022/03/02 01:15:50;;;;;;;21.13;17.00;;;1.10;1.00;;;;;;6304500;28;20323;-54
2022/03/02 01:18:53;;;;;;;19.17;16.10;;;1.20;1.00;;;;;;6304721;28;20241;-57
2022/03/02 01:21:58;;;;;;;20.37;15.73;;;1.10;1.00;;;;;;6312816;28;20770;-54
2022/03/02 01:25:01;;;;;;;25.70;16.90;;;1.10;1.00;;;;;;6307055;28;24276;-54
2022/03/02 01:28:04;;;;;;;22.17;16.07;;;1.10;1.00;;;;;;6309828;28;20232;-54
2022/03/02 01:31:07;;;;;;;24.83;17.27;;;1.30;1.00;;;;;;6310606;28;20307;-55
2022/03/02 01:34:10;;;;;;;24.70;17.00;;;1.20;1.00;;;;;;6304816;28;20332;-54
2022/03/02 01:37:14;;;;;;;24.03;16.67;;;1.20;1.00;;;;;;6310388;28;20927;-54
2022/03/02 01:40:18;;;;;;;23.07;17.37;;;1.20;1.00;;;;;;6305048;28;20379;-55
2022/03/02 01:43:20;;;;;;;23.17;16.97;;;1.00;1.00;;;;;;6301272;28;20232;-57
2022/03/02 01:46:24;;;;;;;21.43;16.10;;;1.20;1.00;;;;;;6313628;28;20717;-55
2022/03/02 01:49:27;;;;;;;19.27;14.40;;;1.20;1.00;;;;;;6304947;28;20228;-55
2022/03/02 01:52:31;;;;;;;24.57;17.13;;;1.00;1.00;;;;;;6300358;28;20297;-55
2022/03/02 01:55:34;;;;;;;22.97;17.00;;;0.90;1.00;;;;;;6313258;28;20241;-55
2022/03/02 01:58:37;;;;;;;21.53;16.07;;;1.00;1.00;;;;;;6305854;28;20851;-56
2022/03/02 02:01:40;;;;;;;22.90;17.20;;;1.10;1.00;;;;;;6312388;28;20375;-54
2022/03/02 02:04:43;;;;;;;22.77;17.07;;;1.10;1.00;;;;;;6313024;28;20244;-56
2022/03/02 02:07:47;;;;;;;19.80;16.03;;;0.90;1.00;;;;;;6308007;28;20308;-55
2022/03/02 02:10:51;;;;;;;21.07;17.13;;;0.80;1.00;;;;;;6286666;28;20322;-55
2022/03/02 02:13:54;;;;;;;19.33;16.00;;;0.90;1.00;;;;;;6312403;28;20236;-56
2022/03/02 02:16:56;;;;;;;19.40;15.13;;;1.00;1.00;;;;;;6306766;28;20365;-55
2022/03/02 02:19:59;;;;;;;20.13;16.40;;;1.00;1.00;;;;;;6295525;28;20389;-55
2022/03/02 02:23:04;;;;;;;23.23;16.17;;;0.90;1.00;;;;;;6305152;28;20266;-54
2022/03/02 02:26:07;;;;;;;21.63;15.47;;;1.00;1.00;;;;;;6312396;28;20354;-56
2022/03/02 02:29:11;;;;;;;18.93;14.80;;;1.00;1.00;;;;;;6300869;28;20441;-54
2022/03/02 02:32:13;;;;;;;22.37;16.20;;;1.10;1.00;;;;;;6306110;28;20248;-55
2022/03/02 02:35:16;;;;;;;17.73;15.23;;;1.10;1.00;;;;;;6309047;28;20753;-54
2022/03/02 02:38:22;;;;;;;18.73;16.07;;;1.00;1.00;;;;;;6305657;28;20292;-56
2022/03/02 02:41:25;;;;;;;19.63;15.97;;;1.10;1.00;;;;;;6308961;28;20315;-55
2022/03/02 02:44:27;;;;;;;24.43;17.40;;;0.90;1.00;;;;;;6309581;28;20739;-55
2022/03/02 02:47:30;;;;;;;20.23;16.07;;;1.10;1.00;;;;;;6302218;28;20232;-54
2022/03/02 02:50:34;;;;;;;25.83;17.33;;;0.80;1.00;;;;;;6302335;28;20282;-54
2022/03/02 02:53:38;;;;;;;22.57;16.90;;;0.90;1.00;;;;;;6310513;28;20449;-56
2022/03/02 02:56:41;;;;;;;21.70;17.00;;;1.10;1.00;;;;;;6297372;28;20248;-55
2022/03/02 02:59:44;;;;;;;23.50;17.00;;;1.10;1.00;;;;;;6298737;28;20778;-55
2022/03/02 03:02:48;;;;;;;21.17;16.27;;;1.00;1.00;;;;;;6310901;28;20315;-55
2022/03/02 03:05:52;;;;;;;21.57;16.70;;;1.00;1.00;;;;;;6304713;28;20558;-54
2022/03/02 03:08:56;;;;;;;22.30;16.10;;;1.10;1.00;;;;;;6301858;28;20239;-55
2022/03/02 03:11:59;;;;;;;21.27;16.57;;;0.80;1.00;;;;;;6310994;28;20837;-55
2022/03/02 03:15:06;;;;;;;19.17;16.20;;;1.00;1.00;;;;;;6303270;28;20402;-55
2022/03/02 03:18:10;;;;;;;19.47;15.23;;;1.00;1.00;;;;;;6311246;28;20228;-56
2022/03/02 03:21:13;;;;;;;19.90;16.63;;;1.00;1.00;;;;;;6309420;28;20369;-56
2022/03/02 03:24:17;;;;;;;25.87;17.00;;;1.00;1.00;;;;;;6305539;28;20233;-55
2022/03/02 03:27:20;;;;;;;22.43;17.13;;;1.00;1.00;;;;;;6309732;28;20319;-55
2022/03/02 03:30:25;;;;;;;23.63;17.10;;;1.20;1.00;;;;;;6304053;28;20941;-55
2022/03/02 03:33:28;;;;;;;22.60;16.53;;;1.00;1.00;;;;;;6305262;28;20308;-55
2022/03/02 03:36:31;;;;;;;19.53;16.50;;;1.10;1.00;;;;;;6300457;28;20818;-55
2022/03/02 03:39:35;;;;;;;23.73;16.80;;;0.90;1.00;;;;;;6291696;28;20320;-59
2022/03/02 03:42:38;;;;;;;24.53;16.93;;;1.10;1.00;;;;;;6309049;28;20233;-55
2022/03/02 03:45:41;;;;;;;22.13;16.33;;;1.10;1.00;;;;;;6307180;28;20236;-56
2022/03/02 03:48:44;;;;;;;22.13;16.60;;;1.10;1.00;;;;;;6292765;28;20690;-56
2022/03/02 03:51:50;;;;;;;22.07;15.97;;;1.30;1.00;;;;;;6305262;28;20314;-59
2022/03/02 03:54:55;;;;;;;25.73;17.17;;;1.10;1.00;;;;;;6304039;28;20803;-55
2022/03/02 03:57:57;;;;;;;27.27;17.63;;;1.10;1.00;;;;;;6300284;28;20821;-55
2022/03/02 04:01:00;;;;;;;22.30;16.63;;;1.20;1.00;;;;;;6303861;28;20340;-55
2022/03/02 04:04:03;;;;;;;23.00;17.70;;;0.90;1.00;;;;;;6306961;28;20271;-54
2022/03/02 04:07:06;;;;;;;23.40;16.63;;;1.10;1.00;;;;;;6304758;28;20261;-56
2022/03/02 04:10:13;;;;;;;21.43;17.20;;;1.00;1.00;;;;;;6283899;28;20327;-56
2022/03/02 04:13:16;;;;;;;23.37;17.90;;;1.30;1.00;;;;;;6307305;28;20447;-54
2022/03/02 04:16:19;;;;;;;23.20;17.57;;;1.20;1.00;;;;;;6307308;28;20777;-54
2022/03/02 04:19:21;;;;;;;28.93;18.23;;;1.20;1.00;;;;;;6298855;28;20775;-54
2022/03/02 04:22:24;;;;;;;24.60;18.13;;;1.00;1.00;;;;;;6301405;28;20358;-55
2022/03/02 04:25:28;;;;;;;23.37;16.73;;;1.00;1.00;;;;;;6308186;28;20311;-56
2022/03/02 04:28:31;;;;;;;22.50;17.10;;;1.10;1.00;;;;;;6304299;28;20511;-56
2022/03/02 04:31:34;;;;;;;25.00;18.20;;;1.10;1.00;;;;;;6285073;28;20236;-55
2022/03/02 04:34:37;;;;;;;24.17;17.50;;;1.00;1.00;;;;;;6302642;28;20330;-56
2022/03/02 04:37:41;;;;;;;23.03;18.40;;;1.00;1.00;;;;;;6296145;28;20439;-55
2022/03/02 04:40:45;;;;;;;29.90;19.57;;;0.90;1.00;;;;;;6298897;28;20244;-54
2022/03/02 04:43:48;;;;;;;25.80;18.63;;;0.90;1.00;;;;;;6300510;28;22693;-55
2022/03/02 04:46:51;;;;;;;27.47;19.43;;;1.10;1.00;;;;;;6296663;28;20305;-55
2022/03/02 04:49:54;;;;;;;24.90;18.20;;;1.00;1.00;;;;;;6296758;28;20256;-55
2022/03/02 04:52:57;;;;;;;27.30;18.73;;;1.10;1.00;;;;;;6306212;28;20236;-56
2022/03/02 04:56:01;;;;;;;24.13;18.13;;;1.20;1.00;;;;;;6305525;28;20393;-54
2022/03/02 04:59:04;;;;;;;24.37;18.80;;;1.10;1.00;;;;;;6288660;28;20237;-54
2022/03/02 05:02:07;;;;;;;28.30;18.87;;;1.00;1.00;;;;;;6300037;28;20752;-54
2022/03/02 05:05:11;;;;;;;29.13;19.57;;;1.00;1.00;;;;;;6305757;28;20236;-54
2022/03/02 05:08:14;;;;;;;32.23;19.63;;;1.10;1.00;;;;;;6297103;28;20406;-54
2022/03/02 05:11:18;;;;;;;26.43;19.83;;;1.00;1.00;;;;;;6290299;28;20224;-55
2022/03/02 05:14:21;;;;;;;27.03;19.97;;;1.10;1.00;;;;;;6305084;28;20232;-54
2022/03/02 05:17:24;;;;;;;29.50;20.60;;;1.00;1.00;;;;;;6298484;28;21459;-56
2022/03/02 05:20:27;;;;;;;25.10;19.63;;;0.90;1.00;;;;;;6295665;28;20232;-54
2022/03/02 05:23:30;;;;;;;26.27;19.50;;;1.10;1.00;;;;;;6308843;28;20240;-54
2022/03/02 05:26:34;;;;;;;31.23;20.70;;;1.00;1.00;;;;;;6310771;28;20333;-56
2022/03/02 05:29:37;;;;;;;26.03;19.07;;;1.00;1.00;;;;;;6307852;28;20317;-56
2022/03/02 05:32:40;;;;;;;27.87;20.37;;;1.10;1.00;;;;;;6302185;28;20302;-56
2022/03/02 05:35:43;;;;;;;31.03;20.33;;;1.10;1.00;;;;;;6311617;28;20332;-56
2022/03/02 05:38:46;;;;;;;29.50;20.17;;;0.90;1.00;;;;;;6295149;28;20275;-55
2022/03/02 05:41:50;;;;;;;28.13;21.10;;;1.00;1.00;;;;;;6295984;28;20242;-54
2022/03/02 05:44:53;;;;;;;27.13;21.30;;;1.10;1.00;;;;;;6300403;28;20244;-56
2022/03/02 05:47:56;;;;;;;32.17;21.23;;;1.10;1.00;;;;;;6307524;28;20247;-56
2022/03/02 05:50:59;;;;;;;27.93;20.23;;;1.30;1.00;;;;;;6304080;28;20311;-62
2022/03/02 05:54:03;;;;;;;30.63;21.20;;;1.10;1.00;;;;;;6305953;28;20589;-54
2022/03/02 05:57:07;;;;;;;31.10;21.33;;;1.10;1.00;;;;;;6308063;28;20237;-57
2022/03/02 06:00:13;;;;;;;29.17;21.00;;;1.00;1.00;;;;;;6306384;28;20635;-56
2022/03/02 06:03:16;;;;;;;31.90;21.93;;;1.10;1.00;;;;;;6310275;28;20307;-55
2022/03/02 06:06:19;;;;;;;29.90;22.40;;;1.10;1.00;;;;;;6311148;28;20241;-54
2022/03/02 06:09:23;;;;;;;36.33;22.80;;;1.10;1.00;;;;;;6300270;28;20243;-55
2022/03/02 06:12:27;;;;;;;33.67;21.53;;;1.10;1.00;;;;;;6310799;28;20752;-56
2022/03/02 06:15:31;;;;;;;32.13;22.00;;;1.00;1.00;;;;;;6309834;28;20229;-55
2022/03/02 06:18:34;;;;;;;32.73;21.93;;;1.10;1.00;;;;;;6299306;28;20560;-55
2022/03/02 06:21:43;;;;;;;34.17;23.83;;;1.10;1.00;;;;;;6300179;28;20232;-55
2022/03/02 06:24:46;;;;;;;34.27;23.17;;;1.00;1.00;;;;;;6303643;28;20329;-55
2022/03/02 06:27:50;;;;;;;43.93;24.37;;;1.20;1.00;;;;;;6307197;28;20323;-55
2022/03/02 06:30:53;;;;;;;33.13;24.17;;;1.20;1.00;;;;;;6309869;28;20236;-55
2022/03/02 06:33:56;;;;;;;34.33;24.67;;;1.30;1.00;;;;;;6302308;28;20252;-56
2022/03/02 06:36:59;;;;;;;38.27;24.10;;;1.30;1.00;;;;;;6301196;28;20271;-55
2022/03/02 06:40:03;;;;;;;36.53;25.43;;;1.20;1.00;;;;;;6296976;28;20897;-55
2022/03/02 06:43:09;;;;;;;36.50;24.70;;;1.50;1.00;;;;;;6298571;28;20840;-55
2022/03/02 06:46:17;;;;;;;35.07;24.73;;;1.40;1.00;;;;;;6308865;28;20794;-55
2022/03/02 06:49:25;;;;;;;37.63;23.97;;;1.50;1.00;;;;;;6301839;28;20528;-55
2022/03/02 06:52:34;;;;;;;34.43;24.63;;;1.60;1.00;;;;;;6304143;28;20286;-56
2022/03/02 06:55:38;;;;;;;38.27;25.07;;;1.40;1.00;;;;;;6310020;28;20790;-58
2022/03/02 06:58:48;;;;;;;42.47;26.93;;;1.40;1.00;;;;;;6303678;28;20268;-55
2022/03/02 07:01:53;;;;;;;43.90;25.83;;;1.40;1.00;;;;;;6306270;28;20253;-55
2022/03/02 07:04:58;;;;;;;35.30;24.37;;;1.50;1.00;;;;;;6308354;28;20243;-55
2022/03/02 07:08:03;;;;;;;38.37;26.40;;;1.50;1.00;;;;;;6303097;28;20308;-55
2022/03/02 07:11:07;;;;;;;43.27;25.33;;;1.80;1.00;;;;;;6302044;28;20323;-56
2022/03/02 07:14:15;;;;;;;38.47;26.70;;;1.70;1.00;;;;;;6303722;28;20438;-55
2022/03/02 07:17:18;;;;;;;44.13;26.93;;;1.70;1.00;;;;;;6308757;28;20229;-54
2022/03/02 07:20:21;;;;;;;38.00;25.17;;;1.70;1.00;;;;;;6303437;28;20220;-55
2022/03/02 07:23:29;;;;;;;34.13;25.00;;;1.60;1.00;;;;;;6308370;28;20423;-55
2022/03/02 07:26:35;;;;;;;41.07;25.50;;;1.70;1.00;;;;;;6308089;28;20656;-55
2022/03/02 07:29:40;;;;;;;34.43;23.80;;;1.70;1.00;;;;;;6309390;28;20236;-54
2022/03/02 07:32:45;;;;;;;37.80;24.67;;;1.80;1.00;;;;;;6300659;28;20270;-55
2022/03/02 07:35:56;;;;;;;38.10;25.80;;;2.00;1.00;;;;;;6304356;28;20305;-55
2022/03/02 07:38:59;;;;;;;33.27;24.83;;;2.00;1.00;;;;;;6305084;28;20228;-57
2022/03/02 07:42:03;;;;;;;34.87;25.23;;;1.90;1.00;;;;;;6304694;28;20224;-55
2022/03/02 07:45:09;;;;;;;45.53;26.30;;;1.90;1.00;;;;;;6308934;28;20358;-55
2022/03/02 07:48:12;;;;;;;36.33;26.13;;;2.20;1.00;;;;;;6305097;28;20830;-55
2022/03/02 07:51:15;;;;;;;36.30;25.83;;;2.00;1.00;;;;;;6305899;28;20311;-55
2022/03/02 07:54:20;;;;;;;43.20;27.07;;;2.00;1.00;;;;;;6305201;28;20320;-55
2022/03/02 07:57:24;;;;;;;39.40;27.27;;;2.20;1.00;;;;;;6308445;28;20233;-55
2022/03/02 08:00:30;;;;;;;37.70;26.90;;;2.30;1.00;;;;;;6304595;28;20224;-55
2022/03/02 08:03:38;;;;;;;42.93;27.53;;;2.60;1.00;;;;;;6308686;28;20668;-56
2022/03/02 08:06:42;;;;;;;39.23;27.47;;;2.40;1.00;;;;;;6305976;28;20241;-56
2022/03/02 08:09:45;;;;;;;50.00;28.37;;;2.30;1.00;;;;;;6302838;28;20634;-56
2022/03/02 08:12:48;;;;;;;37.23;27.60;;;2.60;1.00;;;;;;6308606;28;20325;-56
2022/03/02 08:15:53;;;;;;;37.90;27.37;;;2.60;1.00;;;;;;6305304;28;20243;-56
2022/03/02 08:18:56;;;;;;;41.27;27.30;;;2.70;1.00;;;;;;6299521;28;20593;-55
2022/03/02 08:22:03;;;;;;;40.63;26.67;;;2.80;1.00;;;;;;6307198;28;20294;-56
2022/03/02 08:25:10;;;;;;;41.27;28.57;;;2.90;1.00;;;;;;6304107;28;20517;-58
2022/03/02 08:28:15;;;;;;;44.47;28.90;;;2.70;1.00;;;;;;6305808;28;20233;-56
2022/03/02 08:31:20;;;;;;;35.57;28.10;;;2.90;1.00;;;;;;6305600;28;20486;-55
2022/03/02 08:34:23;;;;;;;44.03;28.03;;;3.20;1.00;;;;;;6305380;28;20307;-55
2022/03/02 08:37:30;;;;;;;40.60;28.70;;;3.20;1.00;;;;;;6304490;28;20233;-56
2022/03/02 08:40:33;;;;;;;40.63;27.10;;;3.30;1.00;;;;;;6302059;28;20248;-55
2022/03/02 08:43:36;;;;;;;40.03;28.53;;;3.30;1.00;;;;;;6308447;28;20243;-55
2022/03/02 08:46:40;;;;;;;42.03;29.20;;;3.30;1.00;;;;;;6305216;28;20248;-56
2022/03/02 08:49:44;;;;;;;44.30;29.30;;;3.40;1.00;;;;;;6300172;28;20255;-56
2022/03/02 08:52:48;;;;;;;38.50;27.30;;;3.80;1.00;;;;;;6307809;28;20728;-55
2022/03/02 08:55:52;;;;;;;42.27;27.90;;;4.10;1.00;;;;;;6296700;28;20323;-56
2022/03/02 08:58:56;;;;;;;40.37;27.87;;;4.50;1.00;;;;;;6289934;28;20306;-55
2022/03/02 09:02:06;;;;;;;38.83;27.90;;;4.40;1.00;;;;;;6304177;28;20670;-56
2022/03/02 09:05:11;;;;;;;38.47;25.93;;;4.60;1.00;;;;;;6313533;28;20255;-56
2022/03/02 09:08:14;;;;;;;37.03;27.00;;;4.80;1.00;;;;;;6305247;28;20243;-56
2022/03/02 09:11:16;;;;;;;39.57;26.00;;;5.10;1.00;;;;;;6307193;28;20782;-57
2022/03/02 09:14:19;;;;;;;40.63;25.87;;;5.10;1.00;;;;;;6310559;28;20236;-57
2022/03/02 09:17:25;;;;;;;41.77;26.87;;;5.20;1.00;;;;;;6311932;28;20240;-56
2022/03/02 09:20:30;;;;;;;42.50;27.33;;;5.40;1.00;;;;;;6313544;28;20315;-57
2022/03/02 09:23:35;;;;;;;42.87;27.53;;;5.20;1.00;;;;;;6312226;28;20284;-56
2022/03/02 09:26:39;;;;;;;36.90;26.00;;;5.10;1.00;;;;;;6303534;28;20248;-56
2022/03/02 09:29:44;;;;;;;39.93;25.60;;;5.20;1.00;;;;;;6304967;28;20494;-57
2022/03/02 09:32:53;;;;;;;34.90;25.50;;;5.20;1.00;;;;;;6305969;28;20433;-55
2022/03/02 09:35:56;;;;;;;35.40;25.90;;;5.10;1.00;;;;;;6312707;28;20229;-55
2022/03/02 09:38:59;;;;;;;40.67;24.33;;;5.50;1.00;;;;;;6304841;28;20511;-56
2022/03/02 09:42:05;;;;;;;35.20;24.40;;;5.40;1.00;;;;;;6305993;28;20311;-56
2022/03/02 09:45:11;;;;;;;34.33;23.40;;;5.40;1.00;;;;;;6307631;28;20762;-56
2022/03/02 09:48:29;;;;;;;37.13;24.30;;;5.80;1.00;;;;;;6300960;28;20315;-57
2022/03/02 09:51:33;;;;;;;35.43;23.50;;;5.80;1.00;;;;;;6306769;28;20248;-56
2022/03/02 09:54:45;;;;;;;36.27;23.60;;;5.80;1.00;;;;;;6307758;28;20395;-56
2022/03/02 09:57:50;;;;;;;37.53;24.63;;;5.80;1.00;;;;;;6298478;28;20236;-56
2022/03/02 10:00:55;;;;;;;36.13;23.50;;;6.00;1.00;;;;;;6303282;28;20332;-56
2022/03/02 10:04:11;;;;;;;33.60;22.63;;;5.80;1.00;;;;;;6309659;28;20323;-56
2022/03/02 10:07:28;;;;;;;31.20;22.87;;;5.80;1.00;;;;;;6305510;28;20652;-56
2022/03/02 10:10:34;;;;;;;35.30;24.00;;;5.80;1.00;;;;;;6310040;28;20235;-56
2022/03/02 10:13:36;;;;;;;33.90;21.33;;;5.80;1.00;;;;;;6307035;28;20241;-57
2022/03/02 10:16:45;;;;;;;34.00;21.43;;;5.80;1.00;;;;;;6311130;28;20260;-57
2022/03/02 10:20:12;;;;;;;33.57;21.50;;;6.10;1.00;;;;;;6308847;28;20700;-56
2022/03/02 10:23:34;;;;;;;28.37;21.27;;;6.30;1.00;;;;;;6308423;28;20747;-56
2022/03/02 10:26:45;;;;;;;29.87;21.43;;;6.30;1.00;;;;;;6310124;28;20259;-57
2022/03/02 10:29:56;;;;;;;29.47;21.37;;;6.70;1.00;;;;;;6302147;28;20732;-56
2022/03/02 10:33:13;;;;;;;29.07;21.03;;;6.80;1.00;;;;;;6288646;28;20388;-58
2022/03/02 10:36:17;;;;;;;26.13;21.07;;;7.00;1.00;;;;;;6309751;28;21471;-58
2022/03/02 10:39:38;;;;;;;33.80;21.87;;;7.50;1.00;;;;;;6299190;28;20245;-57
2022/03/02 10:42:43;;;;;;;27.73;20.33;;;7.60;1.00;;;;;;6304881;28;20272;-57
2022/03/02 10:45:51;;;;;;;27.77;21.23;;;7.70;1.00;;;;;;6297181;28;20870;-57
2022/03/02 10:49:03;;;;;;;24.70;20.10;;;7.70;1.00;;;;;;6303148;28;20237;-57
2022/03/02 10:52:10;;;;;;;30.33;20.90;;;7.80;1.00;;;;;;6301440;28;20236;-58
2022/03/02 10:55:13;;;;;;;26.67;19.83;;;8.00;1.00;;;;;;6305604;28;20414;-57
2022/03/02 10:58:18;;;;;;;24.00;20.33;;;8.20;1.00;;;;;;6305554;28;20961;-57
2022/03/02 11:01:22;;;;;;;29.77;19.93;;;8.60;1.00;;;;;;6307585;28;20224;-57
2022/03/02 11:04:26;;;;;;;27.40;20.37;;;8.70;1.00;;;;;;6309061;28;20816;-57
2022/03/02 11:07:31;;;;;;;26.63;20.37;;;8.60;1.00;;;;;;6309389;28;20366;-57
2022/03/02 11:10:37;;;;;;;29.13;20.10;;;8.60;1.00;;;;;;6300620;28;20830;-57
2022/03/02 11:13:41;;;;;;;34.13;21.17;;;8.50;1.00;;;;;;6304006;28;20524;-57
2022/03/02 11:16:46;;;;;;;29.60;20.80;;;8.40;1.00;;;;;;6307958;28;20232;-58
2022/03/02 11:19:49;;;;;;;29.70;19.93;;;8.30;1.00;;;;;;6301584;28;20233;-57
2022/03/02 11:22:55;;;;;;;25.10;19.10;;;8.20;1.00;;;;;;6309699;28;20915;-58
2022/03/02 11:26:05;;;;;;;22.57;18.63;;;7.80;1.00;;;;;;6305408;28;20237;-58
2022/03/02 11:29:11;;;;;;;24.90;19.03;;;7.90;1.00;;;;;;6287291;28;20225;-58
2022/03/02 11:32:14;;;;;;;26.83;19.03;;;7.90;1.00;;;;;;6300546;28;20233;-58
2022/03/02 11:35:20;;;;;;;23.47;18.80;;;7.90;1.00;;;;;;6305757;28;20237;-59
2022/03/02 11:38:30;;;;;;;38.17;18.47;;;8.00;1.00;;;;;;6301251;28;20386;-57
2022/03/02 11:41:34;;;;;;;21.10;17.60;;;8.20;1.00;;;;;;6304002;28;20497;-57
2022/03/02 11:44:38;;;;;;;26.50;18.17;;;8.30;1.00;;;;;;6300642;28;20284;-58
2022/03/02 11:47:47;;;;;;;25.73;17.90;;;8.50;1.00;;;;;;6303343;28;20710;-56
2022/03/02 11:51:21;;;;;;;25.20;17.63;;;8.60;1.00;;;;;;6305675;28;20323;-57
2022/03/02 11:54:38;;;;;;;21.70;16.80;;;8.70;1.00;;;;;;6250995;28;20267;-57
2022/03/02 11:57:48;;;;;;;20.67;17.33;;;8.90;1.00;;;;;;6271801;28;20377;-57
2022/03/02 12:00:50;;;;;;;23.10;17.17;;;9.00;1.00;;;;;;6270584;28;20233;-57
2022/03/02 12:03:58;;;;;;;23.83;16.90;;;9.10;1.00;;;;;;6281547;28;20244;-57
2022/03/02 12:07:05;;;;;;;20.03;16.83;;;9.30;1.00;;;;;;6279524;28;20321;-57
2022/03/02 12:10:18;;;;;;;24.07;17.60;;;9.20;1.00;;;;;;6273497;28;20484;-57
2022/03/02 12:13:21;;;;;;;21.40;16.07;;;9.40;1.00;;;;;;6282484;28;20324;-58
2022/03/02 12:16:37;;;;;;;20.73;16.77;;;9.30;1.00;;;;;;6283235;28;20363;-59
2022/03/02 12:19:40;;;;;;;22.97;17.57;;;9.40;1.00;;;;;;6276225;28;20459;-58
2022/03/02 12:22:45;;;;;;;21.63;16.73;;;9.40;1.00;;;;;;6281578;28;20257;-59
2022/03/02 12:25:55;;;;;;;18.47;15.33;;;9.50;1.00;;;;;;6281301;28;20234;-58
2022/03/02 12:28:58;;;;;;;21.90;17.70;;;9.40;1.00;;;;;;6264998;28;20245;-58
2022/03/02 12:32:10;;;;;;;22.87;17.53;;;9.30;1.00;;;;;;6274493;28;20352;-58
2022/03/02 12:35:13;;;;;;;27.33;18.83;;;9.50;1.00;;;;;;6281017;28;20327;-58
2022/03/02 12:38:17;;;;;;;24.23;17.00;;;9.50;1.00;;;;;;6292457;28;20241;-57
2022/03/02 12:41:21;;;;;;;22.57;16.57;;;9.70;1.00;;;;;;6290716;28;20339;-58
2022/03/02 12:44:24;;;;;;;18.23;15.67;;;9.80;1.00;;;;;;6284916;28;20360;-56
2022/03/02 12:47:31;;;;;;;22.67;16.10;;;9.40;1.00;;;;;;6284141;28;20299;-58
2022/03/02 12:50:34;;;;;;;23.00;15.17;;;9.60;1.00;;;;;;6287401;28;20272;-58
2022/03/02 12:53:38;;;;;;;19.00;15.67;;;9.60;1.00;;;;;;6284882;28;20329;-56
2022/03/02 12:56:42;;;;;;;20.60;15.50;;;9.70;1.00;;;;;;6284414;28;20229;-59
2022/03/02 12:59:45;;;;;;;18.10;15.37;;;9.80;1.00;;;;;;6282948;28;20710;-58
2022/03/02 13:02:50;;;;;;;17.83;14.37;;;9.80;1.00;;;;;;6278947;28;20229;-57
2022/03/02 13:06:00;;;;;;;17.17;13.37;;;9.80;1.00;;;;;;6284577;28;20828;-57
2022/03/02 13:09:08;;;;;;;18.17;14.83;;;9.90;1.00;;;;;;6278650;28;20324;-58
2022/03/02 13:12:32;;;;;;;14.60;12.73;;;9.90;1.00;;;;;;6284862;28;20233;-57
2022/03/02 13:15:39;;;;;;;18.33;14.17;;;9.90;1.00;;;;;;6281947;28;20245;-57
2022/03/02 13:18:42;;;;;;;16.40;13.73;;;9.70;1.00;;;;;;6280392;28;20286;-57
2022/03/02 13:21:58;;;;;;;19.17;14.87;;;9.80;1.00;;;;;;6286792;28;20324;-57
2022/03/02 13:25:06;;;;;;;17.33;14.63;;;9.70;1.00;;;;;;6300839;28;20324;-57
2022/03/02 13:28:13;;;;;;;15.30;12.73;;;9.90;1.00;;;;;;6305662;28;20233;-56
2022/03/02 13:31:18;;;;;;;13.70;12.30;;;10.00;1.00;;;;;;6309051;28;20233;-57
2022/03/02 13:34:22;;;;;;;15.50;13.63;;;10.00;1.00;;;;;;6308277;28;20241;-58
2022/03/02 13:37:44;;;;;;;16.23;12.37;;;10.20;1.00;;;;;;6289380;28;20311;-57
2022/03/02 13:40:50;;;;;;;13.30;12.00;;;10.20;1.00;;;;;;6276280;28;20465;-60
2022/03/02 13:44:35;;;;;;;16.40;13.13;;;10.30;1.00;;;;;;6281934;28;20242;-56
2022/03/02 13:47:39;;;;;;;14.37;12.90;;;10.40;1.00;;;;;;6260948;28;20317;-58
2022/03/02 13:50:55;;;;;;;15.27;12.90;;;10.40;1.00;;;;;;6281432;28;20260;-57
2022/03/02 13:54:03;;;;;;;14.47;12.03;;;10.30;1.00;;;;;;6280041;28;20368;-57
2022/03/02 13:57:06;;;;;;;16.40;12.77;;;10.10;1.00;;;;;;6279958;28;20651;-57
2022/03/02 14:00:28;;;;;;;17.43;12.50;;;10.10;1.00;;;;;;6282298;28;20256;-57
2022/03/02 14:03:39;;;;;;;15.43;12.53;;;10.10;1.00;;;;;;6287026;28;20232;-57
2022/03/02 14:06:43;;;;;;;15.87;12.17;;;10.10;1.00;;;;;;6284591;28;20291;-57
2022/03/02 14:09:46;;;;;;;14.40;12.67;;;10.10;1.00;;;;;;6280710;28;20745;-56
2022/03/02 14:12:49;;;;;;;13.60;12.20;;;10.20;1.00;;;;;;6282490;28;20291;-59
2022/03/02 14:15:53;;;;;;;18.43;13.37;;;10.30;1.00;;;;;;6284051;28;20453;-58
2022/03/02 14:19:04;;;;;;;14.47;12.97;;;10.40;1.00;;;;;;6281979;28;20481;-57
2022/03/02 14:22:11;;;;;;;15.00;12.60;;;10.30;1.00;;;;;;6274979;28;20677;-57
2022/03/02 14:25:15;;;;;;;15.67;12.53;;;10.40;1.00;;;;;;6290410;28;20229;-57
2022/03/02 14:28:18;;;;;;;16.50;13.77;;;10.20;1.00;;;;;;6284710;28;20233;-58
2022/03/02 14:31:22;;;;;;;17.47;13.57;;;10.30;1.00;;;;;;6283850;28;20225;-57
2022/03/02 14:34:26;;;;;;;18.23;13.07;;;10.20;1.00;;;;;;6275670;28;20238;-57
2022/03/02 14:37:32;;;;;;;16.07;13.30;;;10.10;1.00;;;;;;6272964;28;20483;-57
2022/03/02 14:40:36;;;;;;;15.03;13.07;;;10.00;1.00;;;;;;6282722;28;20407;-58
2022/03/02 14:43:39;;;;;;;15.43;13.30;;;9.90;1.00;;;;;;6282218;28;20240;-57
2022/03/02 14:46:43;;;;;;;14.13;12.63;;;9.90;1.00;;;;;;6280541;28;20242;-57
2022/03/02 14:49:46;;;;;;;15.40;13.80;;;9.80;1.00;;;;;;6277121;28;20735;-57
2022/03/02 14:52:52;;;;;;;14.70;13.07;;;9.70;1.00;;;;;;6281479;28;20443;-57
2022/03/02 14:55:56;;;;;;;17.43;14.43;;;9.50;1.00;;;;;;6282763;28;20259;-57
2022/03/02 14:59:00;;;;;;;20.87;12.90;;;9.30;1.00;;;;;;6263589;28;20238;-58
2022/03/02 15:02:07;;;;;;;15.63;13.43;;;9.30;1.00;;;;;;6278145;28;20237;-57
2022/03/02 15:05:10;;;;;;;15.03;13.37;;;9.20;1.00;;;;;;6283368;28;20358;-57
2022/03/02 15:08:12;;;;;;;16.83;13.17;;;9.10;1.00;;;;;;6273801;28;20299;-57
2022/03/02 15:11:18;;;;;;;19.03;14.90;;;9.10;1.00;;;;;;6280208;28;20312;-57
2022/03/02 15:17:46;;;;;;;18.30;14.67;;;8.90;1.00;;;;;;6277459;28;20241;-57
2022/03/02 15:20:52;;;;;;;16.27;14.43;;;8.80;1.00;;;;;;6273071;28;20386;-57
2022/03/02 15:23:55;;;;;;;19.13;15.03;;;8.80;1.00;;;;;;6276474;28;20716;-58
2022/03/02 15:26:59;;;;;;;19.03;14.23;;;8.70;1.00;;;;;;6280418;28;20649;-57
2022/03/02 15:30:11;;;;;;;17.17;14.97;;;8.50;1.00;;;;;;6271875;28;20241;-57
2022/03/02 15:33:18;;;;;;;17.30;14.27;;;8.40;1.00;;;;;;6281209;28;20289;-56
2022/03/02 15:36:21;;;;;;;16.73;14.17;;;8.30;1.00;;;;;;6282490;28;20600;-57
2022/03/02 15:39:37;;;;;;;17.63;14.13;;;8.20;1.00;;;;;;6290832;28;20238;-58
2022/03/02 15:42:45;;;;;;;20.20;13.80;;;8.10;1.00;;;;;;6277065;28;20311;-57
2022/03/02 15:45:51;;;;;;;17.23;13.60;;;8.00;1.00;;;;;;6280977;28;20382;-56
2022/03/02 15:48:56;;;;;;;18.47;13.73;;;7.90;1.00;;;;;;6281044;28;20235;-57
2022/03/02 15:52:08;;;;;;;18.23;14.17;;;7.80;1.00;;;;;;6283324;28;20240;-57
2022/03/02 15:55:14;;;;;;;14.50;12.80;;;7.70;1.00;;;;;;6272122;28;20265;-56
2022/03/02 15:58:21;;;;;;;17.23;14.17;;;7.70;1.00;;;;;;6278198;28;20236;-57
2022/03/02 16:01:25;;;;;;;16.40;13.67;;;7.60;1.00;;;;;;6287666;28;20245;-57
2022/03/02 16:04:30;;;;;;;15.07;12.73;;;7.40;1.00;;;;;;6280211;28;20470;-57
2022/03/02 16:07:35;;;;;;;14.43;12.37;;;7.60;1.00;;;;;;6275182;28;20248;-57